Time;durP1;ratioP1;P1;durP2;ratioP2;P2;SDS_P1;SDS_P2;PMS_P1;PMS_P2;Temp;Humidity;BMP_temperature;BMP_pressure;BME280_temperature;BME280_humidity;BME280_pressure;Samples;Min_cycle;Max_cycle;Signal;HPM_P1;HPM_P2
2021/10/04 00:02:00;;;;;;;12.43;7.80;;;;;;;11.89;73.50;95647.09;5095488;28;20234;-80
2021/10/04 00:04:29;;;;;;;11.90;8.03;;;;;;;11.81;73.85;95644.19;5043152;28;20479;-80
2021/10/04 00:06:56;;;;;;;9.10;8.07;;;;;;;11.85;73.55;95642.16;5095256;28;20965;-80
2021/10/04 00:09:23;;;;;;;11.33;8.67;;;;;;;11.66;75.02;95645.38;5095357;28;20497;-80
2021/10/04 00:11:50;;;;;;;12.97;9.90;;;;;;;11.68;74.99;95646.94;5095086;28;20442;-80
2021/10/04 00:14:20;;;;;;;7.77;6.87;;;;;;;11.64;75.39;95648.13;5095441;28;20498;-80
2021/10/04 00:16:48;;;;;;;11.10;7.67;;;;;;;11.67;74.43;95640.00;5095019;28;20932;-80
2021/10/04 00:19:15;;;;;;;10.83;7.40;;;;;;;11.63;74.71;95645.63;5095243;28;20451;-80
2021/10/04 00:21:42;;;;;;;8.27;7.47;;;;;;;11.61;74.92;95644.91;5095009;28;20443;-80
2021/10/04 00:24:09;;;;;;;10.83;8.50;;;;;;;11.60;74.41;95648.47;5095273;28;20692;-80
2021/10/04 00:26:36;;;;;;;9.30;7.67;;;;;;;11.74;74.96;95642.97;5094979;28;20920;-80
2021/10/04 00:29:04;;;;;;;9.80;7.83;;;;;;;11.78;73.65;95641.81;5095607;28;20523;-80
2021/10/04 00:31:33;;;;;;;9.03;7.63;;;;;;;11.82;74.17;95645.03;5095295;28;20527;-80
2021/10/04 00:34:00;;;;;;;13.20;8.90;;;;;;;11.56;76.16;95645.22;5094254;28;20800;-80
2021/10/04 00:36:27;;;;;;;12.52;9.32;;;;;;;11.67;74.96;95650.50;5094771;28;20450;-80
2021/10/04 00:38:54;;;;;;;11.10;8.03;;;;;;;11.77;74.42;95642.75;5095136;28;20198;-80
2021/10/04 00:41:21;;;;;;;9.77;7.57;;;;;;;11.82;74.27;95645.03;5094741;28;20455;-80
2021/10/04 00:43:48;;;;;;;7.20;6.40;;;;;;;11.73;74.15;95644.78;5094692;28;20440;-80
2021/10/04 00:46:15;;;;;;;8.23;6.97;;;;;;;11.72;73.38;95643.09;5094516;28;20531;-80
2021/10/04 00:48:45;;;;;;;13.37;7.87;;;;;;;11.81;72.87;95640.75;5094430;28;20812;-80
2021/10/04 00:51:11;;;;;;;11.07;7.57;;;;;;;11.83;72.88;95639.66;5059144;28;20444;-80
2021/10/04 00:53:38;;;;;;;8.13;7.23;;;;;;;11.87;72.81;95638.50;5058686;28;20436;-80
2021/10/04 00:56:07;;;;;;;9.85;7.35;;;;;;;11.88;72.65;95641.97;5058670;28;20454;-80
2021/10/04 00:58:34;;;;;;;8.50;7.50;;;;;;;11.85;73.01;95637.75;5094302;28;20722;-80
2021/10/04 01:01:01;;;;;;;8.30;7.50;;;;;;;11.87;72.24;95643.75;5094066;28;20446;-80
2021/10/04 01:03:28;;;;;;;8.90;8.00;;;;;;;11.89;72.38;95643.63;5094388;28;20464;-80
2021/10/04 01:05:57;;;;;;;8.83;8.03;;;;;;;11.95;72.65;95640.50;5094300;28;20481;-81
2021/10/04 01:08:25;;;;;;;8.30;7.10;;;;;;;11.81;73.26;95635.47;5058424;28;20439;-80
2021/10/04 01:10:52;;;;;;;10.13;8.27;;;;;;;11.72;72.89;95643.09;5094020;28;20810;-80
2021/10/04 01:13:19;;;;;;;9.47;7.77;;;;;;;11.60;73.94;95630.91;5094053;28;20455;-80
2021/10/04 01:15:46;;;;;;;10.53;8.10;;;;;;;11.54;74.40;95631.34;5093920;28;20441;-80
2021/10/04 01:18:13;;;;;;;10.17;7.97;;;;;;;11.50;73.75;95637.81;5075101;28;20459;-80
2021/10/04 01:20:42;;;;;;;9.60;7.30;;;;;;;11.32;75.15;95633.97;5093907;28;20928;-80
2021/10/04 01:23:09;;;;;;;10.67;8.00;;;;;;;11.21;74.77;95632.13;5094132;28;20447;-80
2021/10/04 01:25:36;;;;;;;9.70;8.13;;;;;;;11.10;75.83;95629.50;5093597;28;20928;-80
2021/10/04 01:28:04;;;;;;;11.43;7.17;;;;;;;11.01;75.97;95631.03;5093791;28;20446;-80
2021/10/04 01:30:33;;;;;;;8.97;8.03;;;;;;;10.97;76.98;95640.06;5093808;28;20436;-79
2021/10/04 01:33:00;;;;;;;14.53;8.57;;;;;;;10.94;76.17;95640.28;5093661;28;20946;-80
2021/10/04 01:35:27;;;;;;;11.03;7.40;;;;;;;10.82;77.08;95633.34;5093796;28;20447;-80
2021/10/04 01:37:56;;;;;;;8.33;6.80;;;;;;;10.81;77.75;95631.66;5093935;28;20644;-80
2021/10/04 01:40:23;;;;;;;11.70;7.67;;;;;;;10.68;77.75;95639.59;5074672;28;20444;-80
2021/10/04 01:42:51;;;;;;;9.67;7.87;;;;;;;10.62;77.69;95634.78;5057728;28;20440;-80
2021/10/04 01:45:20;;;;;;;7.95;6.90;;;;;;;10.68;77.55;95623.00;5093077;28;21027;-80
2021/10/04 01:47:48;;;;;;;11.57;7.50;;;;;;;10.67;77.52;95629.19;5074044;28;20281;-80
2021/10/04 01:50:17;;;;;;;9.70;7.43;;;;;;;10.66;77.79;95635.41;5093839;28;20458;-80
2021/10/04 01:52:44;;;;;;;10.47;8.20;;;;;;;9.80;81.26;95633.63;5093425;28;20455;-80
2021/10/04 01:55:12;;;;;;;15.90;9.57;;;;;;;9.64;82.31;95630.41;5093302;28;20436;-80
2021/10/04 01:57:41;;;;;;;9.10;7.53;;;;;;;9.60;82.40;95635.03;5057545;28;20198;-80
2021/10/04 02:00:11;;;;;;;12.37;8.10;;;;;;;9.74;81.72;95628.00;5093381;28;20816;-80
2021/10/04 02:02:39;;;;;;;10.70;8.93;;;;;;;9.45;82.88;95632.63;5074359;28;20484;-80
2021/10/04 02:05:07;;;;;;;9.63;7.57;;;;;;;9.58;82.68;95641.34;5093171;28;21010;-80
2021/10/04 02:07:37;;;;;;;14.30;8.63;;;;;;;9.36;83.29;95641.13;5093205;28;20450;-79
2021/10/04 02:10:06;;;;;;;10.95;8.30;;;;;;;9.39;83.34;95640.91;5074473;28;20443;-80
2021/10/04 02:12:34;;;;;;;8.83;7.90;;;;;;;9.51;82.49;95647.91;5093198;28;20440;-80
2021/10/04 02:15:02;;;;;;;12.13;7.97;;;;;;;9.49;82.77;95652.41;5092905;28;20997;-80
2021/10/04 02:17:30;;;;;;;9.03;8.10;;;;;;;9.55;82.63;95652.03;5092948;28;20483;-80
2021/10/04 02:19:57;;;;;;;14.35;8.15;;;;;;;9.62;82.28;95650.66;5092763;28;20473;-80
2021/10/04 02:22:24;;;;;;;14.70;8.50;;;;;;;9.82;81.32;95657.13;5057380;28;20457;-80
2021/10/04 02:24:51;;;;;;;13.27;8.70;;;;;;;9.83;80.81;95657.03;5092944;28;20483;-80
2021/10/04 02:27:18;;;;;;;13.17;9.17;;;;;;;9.62;81.52;95654.09;5092788;28;20208;-80
2021/10/04 02:29:46;;;;;;;10.80;8.20;;;;;;;9.75;81.68;95659.31;5092505;28;20449;-80
2021/10/04 02:32:13;;;;;;;13.67;9.07;;;;;;;9.78;81.27;95664.34;5056941;28;20459;-80
2021/10/04 02:34:40;;;;;;;13.20;8.00;;;;;;;9.86;80.67;95667.31;5056992;28;20437;-80
2021/10/04 02:37:07;;;;;;;10.33;9.13;;;;;;;9.98;80.04;95662.97;5056980;28;20459;-80
2021/10/04 02:39:35;;;;;;;11.50;8.80;;;;;;;10.02;79.43;95656.56;5092781;28;20485;-80
2021/10/04 02:42:01;;;;;;;9.77;8.70;;;;;;;10.06;79.18;95667.69;5092479;28;20448;-80
2021/10/04 02:44:28;;;;;;;12.70;8.60;;;;;;;10.04;79.39;95665.16;5090448;28;20435;-80
2021/10/04 02:46:57;;;;;;;12.37;8.50;;;;;;;10.11;78.79;95660.31;5092256;28;20502;-80
2021/10/04 02:49:24;;;;;;;11.33;8.87;;;;;;;10.18;78.67;95665.03;5092485;28;20444;-80
2021/10/04 02:51:51;;;;;;;8.80;7.77;;;;;;;10.21;78.56;95669.25;5092559;28;20452;-80
2021/10/04 02:54:19;;;;;;;12.63;8.73;;;;;;;10.24;78.09;95663.78;5092407;28;20450;-80
2021/10/04 02:56:46;;;;;;;12.67;9.13;;;;;;;10.27;77.99;95665.34;5092051;28;20457;-80
2021/10/04 02:59:15;;;;;;;10.40;7.78;;;;;;;10.30;77.52;95662.50;5092201;28;20439;-79
2021/10/04 03:01:42;;;;;;;9.00;6.70;;;;;;;10.30;78.22;95663.34;5073308;28;20230;-81
2021/10/04 03:04:10;;;;;;;8.30;7.22;;;;;;;10.31;77.24;95665.03;5092153;28;20450;-80
2021/10/04 03:06:37;;;;;;;7.63;6.93;;;;;;;10.33;77.64;95660.50;5092250;28;20222;-81
2021/10/04 03:09:04;;;;;;;11.13;7.53;;;;;;;10.32;77.61;95664.06;5092203;28;20950;-80
2021/10/04 03:11:31;;;;;;;8.07;6.72;;;;;;;10.37;77.42;95661.13;5092090;28;20935;-80
2021/10/04 03:13:58;;;;;;;11.90;7.00;;;;;;;10.40;76.98;95668.78;5092174;28;20655;-81
2021/10/04 03:16:25;;;;;;;11.17;7.10;;;;;;;10.41;77.25;95663.44;5073222;28;20451;-80
2021/10/04 03:18:52;;;;;;;7.90;6.57;;;;;;;10.36;76.96;95664.69;5091946;28;20964;-80
2021/10/04 03:21:20;;;;;;;9.10;7.90;;;;;;;10.37;76.71;95667.22;5092151;28;20450;-80
2021/10/04 03:23:47;;;;;;;9.63;6.67;;;;;;;10.32;77.22;95664.06;5092182;28;20509;-81
2021/10/04 03:26:14;;;;;;;10.68;8.50;;;;;;;10.39;76.67;95653.97;5092023;28;20479;-81
2021/10/04 03:28:41;;;;;;;10.73;7.80;;;;;;;10.41;76.87;95665.22;5092013;28;20205;-81
2021/10/04 03:31:08;;;;;;;9.57;8.17;;;;;;;10.31;76.64;95651.06;5091804;28;20534;-80
2021/10/04 03:33:35;;;;;;;15.60;8.70;;;;;;;10.27;76.34;95662.75;5091716;28;20533;-80
2021/10/04 03:36:04;;;;;;;11.43;9.07;;;;;;;10.24;76.84;95658.56;5092175;28;20451;-80
2021/10/04 03:38:33;;;;;;;15.32;9.75;;;;;;;10.24;76.63;95655.94;5092005;28;20658;-81
2021/10/04 03:41:00;;;;;;;16.80;10.50;;;;;;;10.28;77.04;95662.63;5091874;28;20199;-80
2021/10/04 03:43:27;;;;;;;19.20;10.43;;;;;;;10.23;77.44;95662.97;5056503;28;20439;-81
2021/10/04 03:45:54;;;;;;;15.70;10.17;;;;;;;10.12;76.93;95657.63;5091938;28;20489;-80
2021/10/04 03:48:21;;;;;;;19.57;10.67;;;;;;;10.11;76.92;95662.94;5092174;28;20470;-81
2021/10/04 03:50:48;;;;;;;17.37;10.03;;;;;;;10.07;77.84;95664.94;5091805;28;20510;-81
2021/10/04 03:53:15;;;;;;;18.60;12.17;;;;;;;9.89;78.38;95667.09;5091791;28;20448;-80
2021/10/04 03:55:43;;;;;;;22.85;15.02;;;;;;;9.88;78.21;95670.66;5091911;28;20447;-81
2021/10/04 03:58:10;;;;;;;21.17;13.30;;;;;;;9.76;78.22;95671.50;5091765;28;20208;-81
2021/10/04 04:00:37;;;;;;;19.17;13.03;;;;;;;9.70;78.74;95668.47;5091619;28;20436;-80
2021/10/04 04:03:05;;;;;;;24.33;13.97;;;;;;;9.63;79.35;95666.28;5091929;28;20482;-80
2021/10/04 04:05:33;;;;;;;21.77;12.60;;;;;;;9.59;79.53;95661.34;5091549;28;21013;-79
2021/10/04 04:08:00;;;;;;;25.30;17.07;;;;;;;9.62;79.36;95669.00;5091857;28;20807;-79
2021/10/04 04:10:27;;;;;;;20.00;12.77;;;;;;;9.58;79.23;95665.75;5094253;28;20951;-79
2021/10/04 04:12:55;;;;;;;32.10;12.33;;;;;;;9.64;79.54;95672.34;5095329;28;20440;-79
2021/10/04 04:15:22;;;;;;;15.07;11.70;;;;;;;9.69;79.63;95670.25;5095295;28;20454;-78
2021/10/04 04:17:49;;;;;;;24.63;10.50;;;;;;;9.69;78.85;95677.25;5095415;28;20448;-79
2021/10/04 04:20:16;;;;;;;17.87;10.23;;;;;;;9.72;78.83;95682.28;5095502;28;20827;-79
2021/10/04 04:22:44;;;;;;;15.93;10.97;;;;;;;9.75;79.18;95672.44;5095628;28;20449;-79
2021/10/04 04:25:12;;;;;;;14.57;11.50;;;;;;;9.81;78.97;95679.03;5095242;28;20483;-79
2021/10/04 04:27:40;;;;;;;14.82;10.32;;;;;;;9.91;78.89;95680.09;5095020;28;20459;-79
2021/10/04 04:30:10;;;;;;;16.43;10.97;;;;;;;10.00;78.11;95683.84;5095154;28;20654;-80
2021/10/04 04:32:37;;;;;;;14.70;9.80;;;;;;;10.00;77.57;95679.44;5042858;28;20452;-79
2021/10/04 04:35:06;;;;;;;23.20;9.90;;;;;;;10.02;78.05;95687.19;5094671;28;20452;-81
2021/10/04 04:37:33;;;;;;;22.03;9.90;;;;;;;10.06;77.38;95684.25;5095477;28;20447;-79
2021/10/04 04:40:00;;;;;;;14.00;10.67;;;;;;;10.09;77.60;95689.28;5095375;28;20440;-79
2021/10/04 04:42:27;;;;;;;23.53;11.30;;;;;;;10.07;77.55;95693.78;5095480;28;20447;-78
2021/10/04 04:44:54;;;;;;;19.93;10.87;;;;;;;10.05;77.45;95692.22;5095010;28;20938;-79
2021/10/04 04:47:22;;;;;;;13.65;10.48;;;;;;;10.07;77.63;95685.91;5095188;28;20974;-78
2021/10/04 04:49:49;;;;;;;12.03;9.20;;;;;;;10.14;77.44;95687.19;5095116;28;20215;-79
2021/10/04 04:52:16;;;;;;;15.00;9.97;;;;;;;10.18;76.86;95693.06;5094965;28;20927;-77
2021/10/04 04:54:43;;;;;;;13.03;8.67;;;;;;;10.20;77.36;95688.53;5094839;28;20822;-79
2021/10/04 04:57:10;;;;;;;11.70;8.07;;;;;;;10.16;76.92;95700.19;5076362;28;20442;-79
2021/10/04 04:59:37;;;;;;;13.57;8.67;;;;;;;10.17;77.66;95700.09;5076091;28;20815;-79
2021/10/04 05:02:04;;;;;;;11.95;8.10;;;;;;;10.28;77.70;95695.88;5095008;28;20482;-79
2021/10/04 05:04:33;;;;;;;12.67;8.67;;;;;;;10.34;76.64;95703.31;5079425;28;20199;-82
2021/10/04 05:07:00;;;;;;;15.23;8.60;;;;;;;10.37;77.57;95703.94;5095703;28;20480;-81
2021/10/04 05:09:27;;;;;;;17.10;7.70;;;;;;;10.51;78.29;95706.44;5094776;28;20443;-80
2021/10/04 05:11:54;;;;;;;10.07;7.33;;;;;;;11.01;76.57;95701.09;5094784;28;20440;-80
2021/10/04 05:14:21;;;;;;;10.80;6.80;;;;;;;11.74;73.22;95700.81;5092958;28;20570;-80
2021/10/04 05:16:49;;;;;;;9.77;6.33;;;;;;;12.51;70.53;95701.00;5093754;28;20447;-80
2021/10/04 05:19:16;;;;;;;8.03;7.00;;;;;;;13.36;68.41;95699.34;5094536;28;20453;-79
2021/10/04 05:21:45;;;;;;;7.60;6.10;;;;;;;14.16;64.39;95696.88;5094527;28;20463;-78
2021/10/04 05:24:12;;;;;;;7.43;6.30;;;;;;;14.96;61.69;95701.34;5094372;28;20443;-77
2021/10/04 05:26:41;;;;;;;7.00;5.60;;;;;;;15.65;58.63;95703.06;5094499;28;20479;-79
2021/10/04 05:29:08;;;;;;;8.47;6.30;;;;;;;16.16;57.71;95712.41;5094094;28;20456;-79
2021/10/04 05:31:35;;;;;;;75.23;30.40;;;;;;;15.91;54.85;95720.03;5074702;28;20451;-79
2021/10/04 05:34:03;;;;;;;56.45;23.98;;;;;;;15.96;55.09;95717.78;5094415;28;20451;-79
2021/10/04 05:36:30;;;;;;;16.77;12.18;;;;;;;15.82;54.99;95715.56;5092568;28;20229;-78
2021/10/04 05:38:58;;;;;;;20.55;11.98;;;;;;;15.86;55.96;95709.00;5074981;28;20212;-79
2021/10/04 05:41:25;;;;;;;12.03;8.53;;;;;;;16.05;55.14;95713.44;5094054;28;20196;-79
2021/10/04 05:43:52;;;;;;;35.63;18.57;;;;;;;15.97;55.79;95713.31;5093339;28;20457;-79
2021/10/04 05:46:19;;;;;;;44.20;19.30;;;;;;;15.98;55.87;95707.88;5093956;28;20914;-79
2021/10/04 05:48:45;;;;;;;28.10;15.40;;;;;;;16.19;56.40;95713.00;5093622;28;20440;-79
2021/10/04 05:51:12;;;;;;;27.73;13.03;;;;;;;16.20;54.31;95708.53;5092315;28;20569;-80
2021/10/04 05:53:39;;;;;;;21.67;11.83;;;;;;;16.03;55.64;95703.00;5093924;28;20455;-79
2021/10/04 05:56:08;;;;;;;17.20;11.10;;;;;;;16.31;54.95;95708.34;5094158;28;20448;-80
2021/10/04 05:58:34;;;;;;;17.95;13.30;;;;;;;16.64;54.30;95707.78;5093823;28;20446;-80
2021/10/04 06:01:01;;;;;;;28.57;10.57;;;;;;;17.02;53.58;95705.91;5093745;28;20210;-80
2021/10/04 06:03:28;;;;;;;21.63;11.10;;;;;;;16.90;52.69;95709.75;5093647;28;20784;-81
2021/10/04 06:05:55;;;;;;;24.53;10.87;;;;;;;16.64;53.40;95712.25;5093511;28;20492;-80
2021/10/04 06:08:22;;;;;;;16.20;9.83;;;;;;;15.44;56.77;95711.13;5093729;28;20526;-80
2021/10/04 06:10:49;;;;;;;15.33;10.97;;;;;;;15.53;57.70;95704.16;5057174;28;20519;-79
2021/10/04 06:13:18;;;;;;;19.27;9.20;;;;;;;15.93;57.14;95715.44;5092654;28;20462;-79
2021/10/04 06:15:45;;;;;;;13.83;9.73;;;;;;;16.10;56.65;95714.66;5091148;28;20445;-80
2021/10/04 06:18:13;;;;;;;11.63;8.27;;;;;;;16.17;57.25;95714.09;5093446;28;20539;-80
2021/10/04 06:20:40;;;;;;;12.03;8.87;;;;;;;16.38;56.82;95709.41;5093435;28;20452;-80
2021/10/04 06:23:10;;;;;;;10.50;8.00;;;;;;;16.84;55.25;95718.31;5093424;28;20805;-80
2021/10/04 06:25:40;;;;;;;14.90;8.30;;;;;;;16.98;53.71;95721.28;5093228;28;20453;-79
2021/10/04 06:28:07;;;;;;;11.43;7.90;;;;;;;17.37;53.26;95721.03;5093354;28;20559;-80
2021/10/04 06:30:35;;;;;;;19.00;9.33;;;;;;;17.71;52.63;95723.03;5093377;28;20551;-79
2021/10/04 06:33:02;;;;;;;13.70;8.87;;;;;;;17.97;50.98;95723.06;5091893;28;20452;-79
2021/10/04 06:35:29;;;;;;;13.80;9.37;;;;;;;18.14;49.90;95724.84;5057827;28;20518;-80
2021/10/04 06:37:57;;;;;;;12.73;9.90;;;;;;;17.97;50.08;95723.91;5093145;28;20456;-79
2021/10/04 06:40:24;;;;;;;8.97;7.50;;;;;;;18.01;50.57;95727.09;5093475;28;20445;-80
2021/10/04 06:42:51;;;;;;;10.00;7.90;;;;;;;18.17;50.90;95724.53;5092917;28;20785;-80
2021/10/04 06:45:18;;;;;;;13.67;8.63;;;;;;;18.38;49.60;95732.97;5093774;28;20448;-84
2021/10/04 06:47:46;;;;;;;10.80;9.10;;;;;;;18.46;49.39;95734.81;5093659;28;20812;-83
2021/10/04 06:50:13;;;;;;;12.43;8.83;;;;;;;18.40;58.32;95725.66;5093028;28;20455;-79
2021/10/04 06:52:41;;;;;;;13.15;8.35;;;;;;;18.74;52.09;95727.53;5092915;28;20937;-79
2021/10/04 06:55:10;;;;;;;13.57;8.30;;;;;;;18.95;49.41;95730.59;5093042;28;20211;-80
2021/10/04 06:57:37;;;;;;;10.27;8.43;;;;;;;19.08;48.01;95731.00;5057377;28;20245;-80
2021/10/04 07:00:06;;;;;;;9.27;7.78;;;;;;;19.27;48.31;95724.56;5093210;28;20471;-80
2021/10/04 07:02:33;;;;;;;9.30;7.40;;;;;;;19.37;45.57;95721.72;5092609;28;20228;-79
2021/10/04 07:05:01;;;;;;;9.37;6.73;;;;;;;19.47;46.53;95719.78;5093005;28;20466;-79
2021/10/04 07:07:29;;;;;;;7.97;7.07;;;;;;;19.61;46.39;95720.97;5093066;28;20489;-79
2021/10/04 07:09:56;;;;;;;8.33;7.27;;;;;;;19.47;47.06;95719.78;5074065;28;20456;-80
2021/10/04 07:12:23;;;;;;;8.70;6.80;;;;;;;19.49;47.27;95723.94;5092190;28;20443;-80
2021/10/04 07:14:52;;;;;;;9.67;7.97;;;;;;;19.50;47.50;95732.75;5092297;28;20355;-79
2021/10/04 07:17:19;;;;;;;9.20;8.30;;;;;;;18.96;48.01;95729.63;5092437;28;20455;-78
2021/10/04 07:19:46;;;;;;;12.00;7.77;;;;;;;18.90;48.70;95732.09;5092804;28;20547;-79
2021/10/04 07:22:15;;;;;;;12.43;8.03;;;;;;;18.91;48.56;95723.94;5056569;28;20449;-79
2021/10/04 07:24:42;;;;;;;10.13;7.67;;;;;;;18.79;49.20;95722.56;5073426;28;20467;-80
2021/10/04 07:27:09;;;;;;;11.70;8.30;;;;;;;18.87;49.46;95727.94;5091999;28;20986;-79
2021/10/04 07:29:36;;;;;;;10.27;7.03;;;;;;;18.99;47.83;95720.47;5092356;28;20216;-79
2021/10/04 07:32:03;;;;;;;20.23;7.77;;;;;;;19.05;47.79;95725.16;5073328;28;20439;-80
2021/10/04 07:34:31;;;;;;;13.30;8.50;;;;;;;19.19;48.88;95729.84;5092509;28;20440;-78
2021/10/04 07:36:58;;;;;;;11.00;8.17;;;;;;;19.33;48.03;95725.72;5092652;28;20453;-80
2021/10/04 07:39:27;;;;;;;10.43;7.90;;;;;;;19.47;46.73;95720.59;5092420;28;20920;-79
2021/10/04 07:41:56;;;;;;;10.30;7.63;;;;;;;19.38;47.97;95712.78;5092807;28;20451;-78
2021/10/04 07:44:23;;;;;;;8.90;7.87;;;;;;;19.52;49.17;95717.44;5094155;28;20442;-78
2021/10/04 07:46:51;;;;;;;10.60;7.50;;;;;;;19.67;46.73;95709.69;5061000;28;20506;-80
2021/10/04 07:49:18;;;;;;;10.77;7.40;;;;;;;19.89;46.07;95708.16;5096364;28;20440;-81
2021/10/04 07:51:45;;;;;;;9.33;6.70;;;;;;;20.08;46.36;95713.97;5096365;28;20944;-80
2021/10/04 07:54:12;;;;;;;11.03;8.03;;;;;;;20.20;45.98;95700.31;5096732;28;20457;-81
2021/10/04 07:56:42;;;;;;;9.50;6.70;;;;;;;20.27;45.94;95706.63;5096124;28;20448;-81
2021/10/04 07:59:09;;;;;;;10.03;6.87;;;;;;;20.42;45.26;95704.97;5077220;28;20440;-81
2021/10/04 08:01:37;;;;;;;13.73;7.67;;;;;;;20.50;44.98;95704.91;5095412;28;21015;-81
2021/10/04 08:04:04;;;;;;;8.93;6.77;;;;;;;20.51;44.52;95701.25;5094922;28;20976;-81
2021/10/04 08:06:31;;;;;;;8.23;6.30;;;;;;;20.43;43.11;95703.94;5095153;28;20462;-81
2021/10/04 08:08:58;;;;;;;7.30;6.60;;;;;;;20.03;43.10;95697.69;5095389;28;20204;-81
2021/10/04 08:11:25;;;;;;;8.20;6.20;;;;;;;19.89;43.88;95692.19;5096131;28;20443;-81
2021/10/04 08:13:53;;;;;;;7.40;5.97;;;;;;;19.85;43.38;95694.34;5095466;28;20447;-81
2021/10/04 08:16:22;;;;;;;6.33;5.77;;;;;;;19.78;42.90;95690.69;5094812;28;20459;-80
2021/10/04 08:18:50;;;;;;;6.93;6.30;;;;;;;19.71;42.79;95689.72;5094328;28;20440;-81
2021/10/04 08:21:17;;;;;;;7.90;5.83;;;;;;;19.71;43.04;95684.38;5094720;28;20522;-80
2021/10/04 08:23:44;;;;;;;7.10;6.30;;;;;;;19.64;44.22;95692.19;5095059;28;20446;-81
2021/10/04 08:26:11;;;;;;;6.27;5.30;;;;;;;19.60;44.05;95688.19;5094923;28;20440;-81
2021/10/04 08:28:38;;;;;;;14.17;6.47;;;;;;;19.71;43.54;95679.88;5094886;28;20491;-81
2021/10/04 08:31:07;;;;;;;6.47;5.77;;;;;;;19.58;44.25;95684.84;5094483;28;20954;-81
2021/10/04 08:33:35;;;;;;;6.97;5.60;;;;;;;19.50;44.26;95683.00;5094721;28;20442;-81
2021/10/04 08:36:05;;;;;;;7.77;5.97;;;;;;;19.77;43.95;95681.03;5094799;28;20526;-81
2021/10/04 08:38:32;;;;;;;7.53;6.60;;;;;;;19.91;44.71;95679.53;5077170;28;20507;-80
2021/10/04 08:41:00;;;;;;;8.80;6.55;;;;;;;20.00;43.43;95671.38;5074440;28;20954;-81
2021/10/04 08:43:27;;;;;;;12.82;6.18;;;;;;;20.21;44.59;95673.47;5074394;28;20240;-81
2021/10/04 08:45:57;;;;;;;7.20;6.60;;;;;;;20.20;42.67;95658.50;5074401;28;20210;-81
2021/10/04 08:48:27;;;;;;;8.00;6.50;;;;;;;19.98;43.11;95659.22;5074090;28;20851;-81
2021/10/04 08:50:55;;;;;;;7.47;6.77;;;;;;;19.70;42.84;95664.91;5074118;28;20458;-80
2021/10/04 08:53:22;;;;;;;11.37;7.00;;;;;;;19.80;44.54;95662.91;5055852;28;20460;-80
2021/10/04 08:55:49;;;;;;;7.03;6.33;;;;;;;20.03;51.72;95652.38;5075068;28;20795;-83
2021/10/04 08:58:16;;;;;;;8.00;6.50;;;;;;;20.22;47.30;95658.31;5075372;28;20444;-82
2021/10/04 09:00:43;;;;;;;7.65;5.80;;;;;;;20.67;47.71;95647.88;5074662;28;20792;-82
2021/10/04 09:03:12;;;;;;;10.93;6.73;;;;;;;20.58;43.13;95656.91;5074773;28;20720;-82
2021/10/04 09:05:44;;;;;;;7.73;6.40;;;;;;;20.61;45.40;95653.06;5088548;28;20487;-81
2021/10/04 09:08:14;;;;;;;8.50;6.03;;;;;;;20.95;44.23;95647.41;5074612;28;20496;-79
2021/10/04 09:10:44;;;;;;;10.90;6.50;;;;;;;21.21;42.89;95644.41;5075801;28;20464;-92
2021/10/04 09:13:13;;;;;;;10.70;7.20;;;;;;;21.28;43.30;95642.72;5074333;28;20503;-79
2021/10/04 09:15:42;;;;;;;14.33;6.90;;;;;;;21.39;40.82;95636.13;5074497;28;20195;-78
2021/10/04 09:18:18;;;;;;;17.83;6.63;;;;;;;21.33;40.68;95641.19;5074849;28;20433;-79
2021/10/04 09:21:07;;;;;;;7.63;6.77;;;;;;;21.45;43.71;95630.94;5074749;28;20445;-79
2021/10/04 09:23:45;;;;;;;13.35;7.22;;;;;;;21.49;41.08;95634.06;5073562;28;20475;-79
2021/10/04 09:26:31;;;;;;;11.40;6.68;;;;;;;21.44;43.94;95631.94;5074238;28;20705;-79
2021/10/04 09:29:00;;;;;;;12.60;7.23;;;;;;;21.34;43.25;95626.81;5073863;28;20234;-79
2021/10/04 09:31:29;;;;;;;13.63;7.38;;;;;;;21.42;43.90;95622.44;5076100;28;20444;-80
2021/10/04 09:34:05;;;;;;;11.07;6.38;;;;;;;21.64;43.03;95617.06;5094062;28;20208;-80
2021/10/04 09:36:35;;;;;;;9.77;6.90;;;;;;;21.71;42.22;95619.84;5094084;28;20661;-80
2021/10/04 09:39:17;;;;;;;12.73;6.47;;;;;;;21.70;39.86;95620.03;5093962;28;20448;-80
2021/10/04 09:41:57;;;;;;;10.63;5.88;;;;;;;21.81;41.42;95611.56;5094345;28;20461;-82
2021/10/04 09:44:24;;;;;;;9.10;5.93;;;;;;;21.76;39.06;95605.94;5093732;28;20206;-82
2021/10/04 09:46:51;;;;;;;8.00;6.53;;;;;;;21.51;44.23;95608.84;5094138;28;20449;-78
2021/10/04 09:49:18;;;;;;;9.40;6.67;;;;;;;21.67;48.33;95604.34;5093970;28;20957;-81
2021/10/04 09:51:54;;;;;;;7.60;6.80;;;;;;;21.67;39.65;95613.19;5094374;28;20441;-79
2021/10/04 09:54:21;;;;;;;6.90;5.67;;;;;;;21.61;39.39;95596.06;5093885;28;20465;-80
2021/10/04 09:56:48;;;;;;;8.80;5.90;;;;;;;21.39;38.95;95598.75;5093309;28;20549;-77
2021/10/04 09:59:15;;;;;;;5.40;4.90;;;;;;;21.33;38.43;95597.63;5093783;28;20444;-77
2021/10/04 10:01:45;;;;;;;7.37;5.03;;;;;;;21.22;39.22;95590.00;5093493;28;20779;-77
2021/10/04 10:04:19;;;;;;;9.97;4.80;;;;;;;21.00;38.31;95578.31;5093590;28;20451;-76
2021/10/04 10:06:46;;;;;;;7.20;5.90;;;;;;;20.87;39.70;95589.59;5092911;28;20966;-77
2021/10/04 10:09:14;;;;;;;5.37;4.87;;;;;;;20.87;38.61;95573.59;5093482;28;20491;-78
2021/10/04 10:11:41;;;;;;;5.93;5.10;;;;;;;20.60;37.85;95580.25;5092753;28;20443;-78
2021/10/04 10:14:08;;;;;;;6.63;4.47;;;;;;;20.86;38.51;95579.94;5071922;28;20439;-78
2021/10/04 10:16:39;;;;;;;4.83;4.33;;;;;;;20.76;37.75;95568.63;5073335;28;20944;-78
2021/10/04 10:19:12;;;;;;;5.78;4.78;;;;;;;20.75;38.09;95568.81;5073482;28;20460;-78
2021/10/04 10:21:40;;;;;;;7.20;4.90;;;;;;;20.79;39.08;95573.59;5073052;28;20664;-77
2021/10/04 10:24:08;;;;;;;7.93;5.68;;;;;;;20.89;39.57;95568.06;5073225;28;20454;-78
2021/10/04 10:26:39;;;;;;;9.23;5.00;;;;;;;20.85;40.48;95567.59;5073094;28;20453;-77
2021/10/04 10:29:26;;;;;;;7.90;5.70;;;;;;;20.74;40.10;95567.97;5073068;28;20488;-78
2021/10/04 10:32:20;;;;;;;5.70;5.20;;;;;;;20.69;40.48;95567.69;5073186;28;20495;-78
2021/10/04 10:34:56;;;;;;;5.70;5.03;;;;;;;20.60;39.52;95564.25;5030456;28;20450;-78
2021/10/04 10:37:39;;;;;;;7.13;5.53;;;;;;;20.47;41.07;95563.97;5030574;28;20435;-78
2021/10/04 10:40:12;;;;;;;7.33;5.43;;;;;;;20.37;40.93;95563.31;5028663;28;20845;-77
2021/10/04 10:42:42;;;;;;;7.55;5.60;;;;;;;20.50;49.10;95552.09;5030412;28;20446;-81
2021/10/04 10:45:19;;;;;;;13.53;7.10;;;;;;;20.63;47.25;95555.88;5031162;28;20204;-81
2021/10/04 10:47:54;;;;;;;9.97;6.50;;;;;;;20.87;50.70;95548.75;5031079;28;20540;-81
2021/10/04 10:50:46;;;;;;;7.50;5.27;;;;;;;21.15;41.32;95546.38;5031155;28;20447;-80
2021/10/04 10:53:27;;;;;;;12.93;5.63;;;;;;;21.24;39.83;95538.13;5031032;28;20450;-80
2021/10/04 10:55:58;;;;;;;9.27;5.60;;;;;;;21.34;39.06;95540.53;5031182;28;20788;-80
2021/10/04 10:58:28;;;;;;;8.67;5.10;;;;;;;21.41;38.31;95532.66;5031258;28;20222;-80
2021/10/04 11:01:17;;;;;;;11.70;5.73;;;;;;;21.36;39.52;95527.84;5014363;28;20442;-79
2021/10/04 11:03:49;;;;;;;8.95;5.40;;;;;;;21.32;39.32;95531.88;5031084;28;20442;-80
2021/10/04 11:06:17;;;;;;;6.17;5.30;;;;;;;21.37;39.68;95532.16;5031104;28;20451;-80
2021/10/04 11:08:58;;;;;;;10.10;6.03;;;;;;;21.49;39.70;95520.06;5031048;28;20881;-80
2021/10/04 11:11:27;;;;;;;9.57;5.80;;;;;;;21.53;42.07;95516.00;5047323;28;20209;-80
2021/10/04 11:14:07;;;;;;;10.33;5.50;;;;;;;21.56;39.84;95504.13;5093086;28;20476;-80
2021/10/04 11:17:01;;;;;;;7.37;5.27;;;;;;;21.66;40.64;95510.03;5093773;28;20444;-80
2021/10/04 11:19:35;;;;;;;7.77;5.30;;;;;;;21.70;38.14;95505.16;5033604;28;20453;-80
2021/10/04 11:22:03;;;;;;;7.40;4.50;;;;;;;21.79;44.70;95501.38;5034299;28;20451;-85
2021/10/04 11:24:30;;;;;;;10.10;4.93;;;;;;;21.81;40.09;95499.34;5034814;28;20453;-79
2021/10/04 11:27:02;;;;;;;11.73;4.80;;;;;;;21.73;38.20;95496.78;5034452;28;20449;-80
2021/10/04 11:29:30;;;;;;;5.30;4.90;;;;;;;21.84;40.41;95491.81;5034525;28;20998;-80
2021/10/04 11:31:57;;;;;;;6.83;5.73;;;;;;;21.97;39.80;95493.81;5034335;28;20593;-79
2021/10/04 11:34:25;;;;;;;6.17;4.60;;;;;;;22.04;40.30;95493.94;5034289;28;20453;-80
2021/10/04 11:36:55;;;;;;;6.10;4.80;;;;;;;22.05;40.66;95491.09;5033435;28;20970;-80